Time;durP1;ratioP1;P1;durP2;ratioP2;P2;SDS_P1;SDS_P2;PMS_P1;PMS_P2;Temp;Humidity;BMP_temperature;BMP_pressure;BME280_temperature;BME280_humidity;BME280_pressure;Samples;Min_cycle;Max_cycle;Signal;HPM_P1;HPM_P2
2023/06/24 00:01:12;;;;;;;16.95;11.02;;;25.20;99.90;;;;;;5072710;23;20047;-79
2023/06/24 00:03:52;;;;;;;19.65;11.50;;;25.00;99.90;;;;;;4837137;29;20089;-78
2023/06/24 00:09:29;;;;;;;17.67;10.77;;;25.30;99.90;;;;;;5911451;23;20027;-76
2023/06/24 00:13:17;;;;;;;17.40;10.95;;;25.40;99.90;;;;;;4917759;29;20062;-77
2023/06/24 00:15:49;;;;;;;17.25;10.95;;;25.50;99.90;;;;;;4940600;28;20508;-77
2023/06/24 00:21:56;;;;;;;17.35;10.48;;;25.30;99.90;;;;;;4951231;26;20165;-77
2023/06/24 00:24:25;;;;;;;19.48;11.50;;;25.30;99.90;;;;;;4941073;29;20524;-77
2023/06/24 00:27:23;;;;;;;22.00;12.93;;;25.30;99.90;;;;;;4958797;28;20067;-78
2023/06/24 00:33:10;;;;;;;18.50;12.32;;;25.20;99.90;;;;;;5249117;23;20048;-77
2023/06/24 00:39:10;;;;;;;19.52;11.07;;;25.40;99.90;;;;;;5319987;23;20059;-78
2023/06/24 00:41:44;;;;;;;16.50;10.88;;;25.20;99.90;;;;;;4922492;29;20118;-78
2023/06/24 00:44:13;;;;;;;19.38;11.40;;;25.10;99.90;;;;;;4952842;29;20282;-79
2023/06/24 00:47:04;;;;;;;20.40;11.48;;;25.10;99.90;;;;;;4924467;29;20437;-80
2023/06/24 00:56:38;;;;;;;17.05;11.52;;;24.90;99.90;;;;;;5453288;23;20122;-78
2023/06/24 00:59:07;;;;;;;16.60;9.80;;;24.80;99.90;;;;;;4938413;29;20044;-78
2023/06/24 01:01:49;;;;;;;17.70;9.52;;;25.00;99.90;;;;;;4947955;29;20039;-79
2023/06/24 01:04:35;;;;;;;15.38;9.52;;;24.80;99.90;;;;;;4941923;29;20051;-79
2023/06/24 01:13:22;;;;;;;17.35;9.20;;;24.60;99.90;;;;;;4031131;27;20049;-78
2023/06/24 01:20:07;;;;;;;15.25;9.32;;;24.70;99.90;;;;;;5289034;23;20056;-80
2023/06/24 01:23:51;;;;;;;15.95;8.85;;;24.60;99.90;;;;;;4917450;29;20051;-77
2023/06/24 01:30:32;;;;;;;17.83;9.73;;;24.20;99.90;;;;;;4908080;29;20118;-77
2023/06/24 01:33:04;;;;;;;13.10;8.48;;;24.40;99.90;;;;;;4898781;29;20044;-77
2023/06/24 01:39:09;;;;;;;15.23;9.00;;;24.30;99.90;;;;;;4911609;29;20040;-78
2023/06/24 01:42:08;;;;;;;16.38;8.65;;;24.20;99.90;;;;;;4912278;29;20509;-77
2023/06/24 01:48:23;;;;;;;14.35;9.35;;;24.10;99.90;;;;;;4915086;29;20449;-77
2023/06/24 01:54:55;;;;;;;16.63;8.48;;;24.10;99.90;;;;;;5181597;23;20060;-80
2023/06/24 01:58:07;;;;;;;16.73;8.30;;;24.30;99.90;;;;;;4856829;29;20051;-79
2023/06/24 02:00:36;;;;;;;17.27;8.90;;;24.10;99.90;;;;;;4915152;29;20085;-78
2023/06/24 02:03:05;;;;;;;15.68;9.40;;;24.20;99.90;;;;;;4911250;29;20054;-77
2023/06/24 02:08:53;;;;;;;14.43;8.70;;;24.10;99.90;;;;;;4916630;29;20043;-79
2023/06/24 02:11:23;;;;;;;18.98;9.40;;;24.20;99.90;;;;;;4917658;29;20115;-77
2023/06/24 02:13:53;;;;;;;17.48;9.38;;;24.30;99.90;;;;;;4902126;29;20052;-78
2023/06/24 02:16:21;;;;;;;18.50;9.75;;;24.40;99.90;;;;;;4910003;29;20490;-78
2023/06/24 02:18:50;;;;;;;14.88;8.75;;;24.20;99.90;;;;;;4932457;29;20036;-78
2023/06/24 02:21:19;;;;;;;15.65;9.25;;;24.20;99.90;;;;;;4924925;29;20040;-79
2023/06/24 02:24:02;;;;;;;16.08;9.02;;;24.30;99.90;;;;;;4901060;29;20048;-79
2023/06/24 02:26:30;;;;;;;17.35;8.95;;;24.30;99.90;;;;;;4913659;29;20126;-79
2023/06/24 02:28:58;;;;;;;14.93;9.23;;;24.10;99.90;;;;;;4928646;29;20414;-79
2023/06/24 02:31:27;;;;;;;13.68;8.40;;;23.90;99.90;;;;;;4918422;29;20119;-81
2023/06/24 02:33:54;;;;;;;16.15;9.40;;;24.00;99.90;;;;;;4901546;29;20092;-78
2023/06/24 02:36:24;;;;;;;13.50;8.90;;;24.20;99.90;;;;;;4919129;29;20047;-78
2023/06/24 02:38:51;;;;;;;17.27;9.43;;;24.10;99.90;;;;;;4918901;29;20044;-78
2023/06/24 02:41:18;;;;;;;15.52;9.80;;;24.20;99.90;;;;;;4918231;29;20461;-78
2023/06/24 02:43:46;;;;;;;15.45;9.63;;;24.20;99.90;;;;;;4929751;29;20040;-79
2023/06/24 02:46:15;;;;;;;16.92;8.70;;;24.00;99.90;;;;;;4915152;29;20048;-77
2023/06/24 02:48:49;;;;;;;17.95;9.98;;;23.90;99.90;;;;;;4900469;29;20044;-79
2023/06/24 02:51:16;;;;;;;15.98;9.27;;;23.80;99.90;;;;;;4918897;29;20044;-79
2023/06/24 02:53:46;;;;;;;21.33;10.40;;;23.80;99.90;;;;;;4915379;29;20035;-79
2023/06/24 02:56:20;;;;;;;17.05;9.25;;;23.90;99.90;;;;;;4939129;29;20491;-79
2023/06/24 02:58:51;;;;;;;25.27;11.27;;;24.00;99.90;;;;;;4933658;29;20039;-81
2023/06/24 03:01:24;;;;;;;19.83;9.95;;;23.90;99.90;;;;;;4887194;29;20080;-79
2023/06/24 03:03:55;;;;;;;17.58;10.48;;;23.80;99.90;;;;;;4918667;29;20111;-79
2023/06/24 03:06:23;;;;;;;19.17;10.43;;;23.60;99.90;;;;;;4905126;29;20441;-79
2023/06/24 03:08:52;;;;;;;18.83;10.80;;;23.50;99.90;;;;;;4904378;29;20147;-79
2023/06/24 03:11:28;;;;;;;16.20;10.77;;;23.40;99.90;;;;;;4917434;29;20132;-79
2023/06/24 03:13:56;;;;;;;16.27;11.40;;;23.40;99.90;;;;;;4917986;29;20048;-80
2023/06/24 03:20:20;;;;;;;18.65;11.27;;;23.40;99.90;;;;;;5273373;23;20106;-78
2023/06/24 03:23:15;;;;;;;19.02;10.02;;;22.90;99.90;;;;;;4938214;29;20040;-78
2023/06/24 03:26:05;;;;;;;17.50;10.57;;;22.60;99.90;;;;;;4912153;29;20059;-80
2023/06/24 03:32:37;;;;;;;12.68;9.93;;;22.60;99.90;;;;;;4945394;29;20404;-79
2023/06/24 03:35:06;;;;;;;18.40;11.48;;;22.80;99.90;;;;;;4940973;29;20094;-78
2023/06/24 03:37:33;;;;;;;14.80;9.55;;;22.90;99.90;;;;;;4938940;29;20119;-79
2023/06/24 03:40:01;;;;;;;17.45;10.35;;;23.00;99.90;;;;;;4941630;29;20378;-79
2023/06/24 03:42:38;;;;;;;19.77;10.73;;;22.80;99.90;;;;;;4940906;29;20603;-77
2023/06/24 03:45:06;;;;;;;17.30;10.80;;;23.00;99.90;;;;;;4933845;29;20545;-77
2023/06/24 03:47:33;;;;;;;16.20;10.10;;;23.00;99.90;;;;;;4939227;29;20043;-76
2023/06/24 03:50:16;;;;;;;16.85;9.80;;;23.20;99.90;;;;;;4932559;29;20043;-77
2023/06/24 03:52:44;;;;;;;17.42;10.45;;;23.80;99.90;;;;;;4936231;29;20556;-77
2023/06/24 03:55:52;;;;;;;16.65;9.45;;;24.10;99.90;;;;;;4910685;29;20095;-78
2023/06/24 03:58:20;;;;;;;19.90;10.52;;;24.20;99.90;;;;;;4919120;29;20036;-78
2023/06/24 04:00:49;;;;;;;17.85;10.10;;;24.30;99.90;;;;;;5354536;23;20573;-76
2023/06/24 04:03:32;;;;;;;20.23;13.30;;;24.40;99.90;;;;;;4949814;29;20100;-77
2023/06/24 04:06:01;;;;;;;22.33;12.82;;;24.30;99.90;;;;;;4923705;29;20054;-78
2023/06/24 04:08:29;;;;;;;22.48;14.55;;;24.30;99.90;;;;;;4949162;29;20130;-78
2023/06/24 04:15:21;;;;;;;19.52;12.25;;;24.50;99.90;;;;;;4933756;29;20099;-78
2023/06/24 04:17:53;;;;;;;24.17;12.27;;;24.50;99.90;;;;;;4950103;29;20446;-79
2023/06/24 04:20:37;;;;;;;22.17;11.90;;;24.40;99.90;;;;;;4939999;29;20035;-79
2023/06/24 04:24:01;;;;;;;14.48;11.13;;;24.40;99.90;;;;;;4973062;23;20043;-79
2023/06/24 04:26:28;;;;;;;15.77;10.75;;;24.10;99.90;;;;;;5554428;23;21139;-78
2023/06/24 04:29:02;;;;;;;19.77;11.98;;;24.30;99.90;;;;;;4938714;29;20072;-78
2023/06/24 04:35:25;;;;;;;20.67;12.88;;;24.20;99.90;;;;;;4927852;29;20366;-78
2023/06/24 04:38:02;;;;;;;18.08;12.00;;;23.70;99.90;;;;;;5117557;23;20104;-78
2023/06/24 04:41:42;;;;;;;16.15;12.50;;;23.80;99.90;;;;;;4957493;23;20063;-78
2023/06/24 04:44:50;;;;;;;18.88;11.65;;;23.70;99.90;;;;;;4923963;29;20055;-79
2023/06/24 04:47:19;;;;;;;19.67;11.20;;;23.60;99.90;;;;;;5042854;23;20047;-78
2023/06/24 04:49:57;;;;;;;20.95;12.48;;;23.80;99.90;;;;;;4886175;29;20045;-78
2023/06/24 04:56:30;;;;;;;17.25;11.77;;;24.40;99.90;;;;;;4890356;29;20046;-78
2023/06/24 05:03:05;;;;;;;18.45;12.30;;;24.80;99.90;;;;;;5257215;23;20405;-79
2023/06/24 05:16:25;;;;;;;17.33;11.70;;;25.10;99.90;;;;;;4871466;29;20486;-78
2023/06/24 05:19:11;;;;;;;17.83;10.77;;;25.20;99.90;;;;;;5267269;23;20031;-77
2023/06/24 05:22:20;;;;;;;19.90;10.90;;;25.30;99.90;;;;;;4873649;29;20402;-78
2023/06/24 05:24:51;;;;;;;21.40;11.20;;;25.30;99.90;;;;;;4869136;29;20453;-79
2023/06/24 05:32:32;;;;;;;19.15;10.45;;;25.10;99.90;;;;;;5302888;23;20135;-80
2023/06/24 05:43:17;;;;;;;12.20;9.18;;;25.20;99.90;;;;;;4884424;29;20039;-79
2023/06/24 05:46:00;;;;;;;19.17;10.50;;;25.40;99.90;;;;;;4901931;29;20084;-80
2023/06/24 05:48:42;;;;;;;19.65;10.90;;;25.60;99.90;;;;;;4890791;29;20072;-80
2023/06/24 05:58:57;;;;;;;16.25;10.68;;;25.80;99.90;;;;;;4880360;29;20560;-80
2023/06/24 06:01:59;;;;;;;16.80;10.55;;;25.90;99.90;;;;;;4882214;29;20590;-80
2023/06/24 06:11:38;;;;;;;17.65;11.23;;;25.80;99.90;;;;;;4961842;23;20468;-79
2023/06/24 06:14:05;;;;;;;18.27;11.27;;;25.90;99.90;;;;;;4922878;29;20032;-80
2023/06/24 06:16:34;;;;;;;17.23;12.23;;;26.00;99.90;;;;;;5140816;23;20015;-80
2023/06/24 06:19:02;;;;;;;20.98;11.65;;;25.90;99.90;;;;;;4923623;29;20036;-80
2023/06/24 06:21:30;;;;;;;18.63;11.95;;;25.80;99.90;;;;;;4905365;29;20437;-80
2023/06/24 06:24:23;;;;;;;18.75;11.57;;;25.70;99.90;;;;;;4923431;29;20047;-80
2023/06/24 06:26:53;;;;;;;18.25;10.88;;;25.70;99.90;;;;;;4906848;29;20031;-80
2023/06/24 06:29:21;;;;;;;20.08;11.68;;;25.70;99.90;;;;;;4908250;29;20052;-79
2023/06/24 06:38:08;;;;;;;19.85;10.63;;;25.60;99.90;;;;;;5258702;23;20075;-78
2023/06/24 06:40:35;;;;;;;17.13;10.75;;;25.70;99.90;;;;;;4930298;29;20095;-77
2023/06/24 06:43:03;;;;;;;16.27;10.40;;;25.90;99.90;;;;;;4888717;29;20044;-78
2023/06/24 06:45:32;;;;;;;17.70;10.75;;;26.10;99.90;;;;;;4929323;29;20068;-79
2023/06/24 06:48:01;;;;;;;18.85;11.93;;;26.20;99.90;;;;;;4903760;29;20068;-80
2023/06/24 06:50:29;;;;;;;17.75;11.38;;;26.10;99.90;;;;;;4918979;29;20036;-78
2023/06/24 06:52:57;;;;;;;20.00;11.52;;;26.20;99.90;;;;;;4904616;29;20170;-80
2023/06/24 06:55:27;;;;;;;18.83;10.48;;;26.20;99.90;;;;;;4888525;29;20044;-80
2023/06/24 06:58:16;;;;;;;;;;;;;;;;;;;;;
2023/06/24 07:01:08;;;;;;;16.58;10.73;;;26.20;99.90;;;;;;4906423;29;20150;-79
2023/06/24 07:03:36;;;;;;;18.75;11.18;;;26.40;99.90;;;;;;4899844;29;20048;-81
2023/06/24 07:09:49;;;;;;;16.23;10.75;;;26.50;99.90;;;;;;4922883;29;20068;-79
2023/06/24 07:12:20;;;;;;;20.80;11.15;;;26.10;99.90;;;;;;4907460;29;20438;-79
2023/06/24 07:14:55;;;;;;;14.77;10.50;;;26.20;99.90;;;;;;4921798;29;20044;-80
2023/06/24 07:17:25;;;;;;;18.90;11.13;;;26.30;99.90;;;;;;4923683;29;20079;-82
2023/06/24 07:19:55;;;;;;;18.75;11.43;;;26.50;99.90;;;;;;4906970;29;20421;-79
2023/06/24 07:22:26;;;;;;;17.50;10.18;;;26.70;99.90;;;;;;4914068;29;20111;-81
2023/06/24 07:25:02;;;;;;;14.52;10.60;;;26.60;99.90;;;;;;4934386;29;20535;-80
2023/06/24 07:28:09;;;;;;;16.40;9.52;;;26.70;99.90;;;;;;5122044;23;20054;-80
2023/06/24 07:30:38;;;;;;;14.93;10.10;;;26.70;99.90;;;;;;4895250;29;20079;-82
2023/06/24 07:33:08;;;;;;;15.30;10.35;;;26.80;99.90;;;;;;4926734;29;20109;-81
2023/06/24 07:36:27;;;;;;;16.73;9.93;;;26.80;99.90;;;;;;4913726;29;20421;-80
2023/06/24 07:38:55;;;;;;;14.63;8.75;;;26.90;99.90;;;;;;4906677;29;20040;-80
2023/06/24 07:41:23;;;;;;;13.30;9.13;;;27.00;99.90;;;;;;4920058;29;20048;-81
2023/06/24 07:43:51;;;;;;;13.88;9.05;;;27.10;99.90;;;;;;4914429;29;20398;-80
2023/06/24 07:46:18;;;;;;;12.60;8.20;;;27.00;99.90;;;;;;4939318;29;20135;-81
2023/06/24 07:49:01;;;;;;;12.73;8.88;;;27.10;99.90;;;;;;4904026;29;20044;-81
2023/06/24 07:51:45;;;;;;;12.07;8.55;;;27.10;99.90;;;;;;4899062;29;20064;-82
2023/06/24 07:54:26;;;;;;;13.50;9.10;;;27.20;99.90;;;;;;4907226;29;20078;-80
2023/06/24 07:56:53;;;;;;;13.00;8.90;;;27.20;99.90;;;;;;4921385;29;20044;-79
2023/06/24 07:59:22;;;;;;;12.23;7.75;;;27.30;99.90;;;;;;4918772;29;20036;-78
2023/06/24 08:01:49;;;;;;;13.60;8.38;;;27.40;99.90;;;;;;4899977;29;20049;-79
2023/06/24 08:04:17;;;;;;;13.38;8.35;;;27.40;99.90;;;;;;4943844;29;20510;-79
2023/06/24 08:06:47;;;;;;;11.65;7.97;;;27.40;99.90;;;;;;4883078;29;20406;-78
2023/06/24 08:09:16;;;;;;;11.45;8.23;;;27.60;99.90;;;;;;4904300;29;20557;-80
2023/06/24 08:15:09;;;;;;;15.30;8.98;;;27.70;99.90;;;;;;4915559;29;20060;-75
2023/06/24 08:17:39;;;;;;;21.50;15.00;;;27.80;99.90;;;;;;4906342;29;20055;-76
2023/06/24 08:20:09;;;;;;;14.05;11.02;;;27.90;99.90;;;;;;4904971;29;20051;-75
2023/06/24 08:22:40;;;;;;;13.23;9.45;;;28.10;99.90;;;;;;4922519;29;20048;-80
2023/06/24 08:25:16;;;;;;;24.50;18.15;;;28.30;99.90;;;;;;4905020;29;20048;-74
2023/06/24 08:27:46;;;;;;;35.53;26.42;;;28.40;99.90;;;;;;4914355;29;20059;-73
2023/06/24 08:30:16;;;;;;;;;;;28.40;99.70;;;;;;4921804;29;20044;-74
2023/06/24 08:32:44;;;;;;;;;;;28.40;99.50;;;;;;4922375;29;19962;-76
2023/06/24 08:35:13;;;;;;;11.77;9.07;;;28.50;99.50;;;;;;4919374;29;20072;-75
2023/06/24 08:37:40;;;;;;;10.07;8.20;;;28.40;99.40;;;;;;4902341;29;20048;-74
2023/06/24 08:40:10;;;;;;;11.38;8.85;;;28.70;99.60;;;;;;4918045;29;20048;-73
2023/06/24 08:42:38;;;;;;;11.18;8.25;;;28.70;99.30;;;;;;4919268;29;20066;-75
2023/06/24 08:45:16;;;;;;;22.13;19.23;;;28.70;98.90;;;;;;4899647;29;20079;-78
2023/06/24 08:47:45;;;;;;;37.42;25.13;;;28.80;98.90;;;;;;4915441;29;20087;-73
2023/06/24 08:50:13;;;;;;;38.63;28.95;;;28.80;98.70;;;;;;4922694;29;20379;-75
2023/06/24 08:52:52;;;;;;;26.25;18.02;;;29.10;98.70;;;;;;4887856;29;20085;-72
2023/06/24 08:55:50;;;;;;;51.00;40.22;;;29.20;99.30;;;;;;4910879;23;20059;-75
2023/06/24 08:58:40;;;;;;;28.13;22.02;;;29.30;98.80;;;;;;4914750;29;20055;-75
2023/06/24 09:01:52;;;;;;;;;;;;;;;;;;;;;
2023/06/24 09:04:58;;;;;;;55.70;42.75;;;29.40;98.20;;;;;;4927696;29;20064;-73
2023/06/24 09:07:30;;;;;;;19.05;12.50;;;29.50;98.30;;;;;;4934668;29;20080;-74
2023/06/24 09:10:00;;;;;;;31.55;22.27;;;29.70;97.90;;;;;;4903879;29;20131;-74
2023/06/24 09:12:36;;;;;;;19.85;13.70;;;29.50;97.40;;;;;;4890833;29;20397;-76
2023/06/24 09:15:37;;;;;;;12.88;9.27;;;29.30;97.50;;;;;;4907157;29;20128;-77
2023/06/24 09:18:35;;;;;;;14.02;8.50;;;29.10;97.40;;;;;;4920788;29;20046;-77
2023/06/24 09:21:27;;;;;;;11.68;8.05;;;28.90;97.10;;;;;;4884317;29;20049;-78
2023/06/24 09:23:57;;;;;;;13.20;8.60;;;28.90;97.80;;;;;;4924190;29;20100;-76
2023/06/24 09:26:25;;;;;;;38.55;33.13;;;28.80;98.00;;;;;;4922973;29;20036;-74
2023/06/24 09:28:54;;;;;;;21.73;16.45;;;28.90;97.90;;;;;;4923646;29;20039;-73
2023/06/24 09:31:24;;;;;;;16.48;11.10;;;28.80;98.00;;;;;;4906233;29;20093;-74
2023/06/24 09:33:58;;;;;;;14.70;12.15;;;28.80;98.60;;;;;;4893766;29;20052;-73
2023/06/24 09:36:30;;;;;;;16.83;10.43;;;28.80;98.10;;;;;;4915906;29;20051;-73
2023/06/24 09:39:06;;;;;;;14.63;10.18;;;28.80;98.30;;;;;;4900294;29;20043;-73
2023/06/24 09:41:50;;;;;;;12.07;9.10;;;28.80;97.70;;;;;;4916313;29;20134;-72
2023/06/24 09:44:21;;;;;;;15.48;8.20;;;28.90;97.80;;;;;;4924411;29;20530;-70
2023/06/24 09:46:48;;;;;;;12.30;8.73;;;28.80;98.00;;;;;;4918582;29;20099;-72
2023/06/24 09:49:17;;;;;;;14.25;8.77;;;28.80;98.30;;;;;;4916737;29;20126;-73
2023/06/24 09:51:47;;;;;;;14.38;9.00;;;28.70;99.00;;;;;;4923727;29;20051;-73
2023/06/24 09:54:15;;;;;;;12.77;9.02;;;28.70;98.30;;;;;;4920794;29;20393;-72
2023/06/24 09:56:48;;;;;;;16.58;9.00;;;28.70;98.40;;;;;;4914965;29;20443;-73
2023/06/24 09:59:22;;;;;;;18.30;10.02;;;28.70;98.30;;;;;;4895305;29;20099;-74
2023/06/24 10:01:53;;;;;;;16.98;10.45;;;28.60;98.30;;;;;;4919337;29;20051;-75
2023/06/24 10:04:24;;;;;;;12.30;8.52;;;28.70;98.10;;;;;;4889438;29;20040;-74
2023/06/24 10:06:54;;;;;;;17.95;10.93;;;28.70;98.10;;;;;;4888862;29;20074;-72
2023/06/24 10:09:21;;;;;;;;;;;28.80;98.10;;;;;;4922498;29;20135;-71
2023/06/24 10:11:49;;;;;;;20.17;10.75;;;28.80;98.40;;;;;;4920704;29;19923;-73
2023/06/24 10:14:18;;;;;;;15.60;9.35;;;28.70;98.50;;;;;;4927484;29;20337;-71
2023/06/24 10:16:48;;;;;;;17.20;9.25;;;28.80;98.10;;;;;;4930571;29;20054;-72
2023/06/24 10:19:25;;;;;;;15.27;9.82;;;28.90;98.10;;;;;;4897422;29;20051;-72
2023/06/24 10:21:57;;;;;;;13.63;9.40;;;29.00;98.50;;;;;;4895482;29;20150;-73
2023/06/24 10:24:31;;;;;;;19.52;10.48;;;29.10;98.10;;;;;;4898352;29;20080;-72
2023/06/24 10:27:14;;;;;;;12.43;9.52;;;29.20;98.50;;;;;;4914655;29;20393;-73
2023/06/24 10:29:47;;;;;;;13.82;10.13;;;29.30;98.10;;;;;;4896261;29;20048;-75
2023/06/24 10:32:15;;;;;;;13.07;9.52;;;29.20;98.20;;;;;;4924684;29;20067;-73
2023/06/24 10:34:46;;;;;;;16.58;10.23;;;29.00;98.10;;;;;;4910032;29;20055;-73
2023/06/24 10:37:19;;;;;;;14.90;9.93;;;29.00;98.60;;;;;;4913539;29;20067;-73
2023/06/24 10:40:00;;;;;;;13.00;9.77;;;28.90;98.60;;;;;;4912896;29;20052;-73
2023/06/24 10:42:42;;;;;;;16.92;9.63;;;29.00;98.70;;;;;;4902377;29;20402;-74
2023/06/24 10:45:10;;;;;;;17.42;10.32;;;28.90;98.90;;;;;;4919129;29;20040;-72
2023/06/24 10:47:44;;;;;;;16.30;9.90;;;28.90;98.90;;;;;;4920803;29;20048;-74
2023/06/24 10:50:18;;;;;;;14.35;9.65;;;29.00;98.50;;;;;;4914714;29;20059;-73
2023/06/24 10:52:55;;;;;;;16.95;9.93;;;28.90;98.50;;;;;;4914795;29;20048;-73
2023/06/24 10:55:25;;;;;;;15.10;10.40;;;29.00;98.50;;;;;;4925562;29;20051;-72
2023/06/24 10:57:53;;;;;;;15.85;10.10;;;28.80;98.90;;;;;;4899871;29;20099;-73
2023/06/24 11:00:23;;;;;;;17.40;9.93;;;28.50;99.90;;;;;;4883419;29;20108;-75
2023/06/24 11:02:50;;;;;;;20.80;10.18;;;28.60;99.90;;;;;;4915553;29;20048;-73
2023/06/24 11:05:20;;;;;;;13.75;9.95;;;28.60;99.90;;;;;;4883380;29;20087;-73
2023/06/24 11:07:47;;;;;;;12.68;9.10;;;28.60;99.90;;;;;;4920974;29;20418;-73
2023/06/24 11:10:15;;;;;;;31.50;20.55;;;28.60;99.90;;;;;;4931462;23;20048;-74
2023/06/24 11:12:46;;;;;;;26.40;17.25;;;28.70;99.90;;;;;;4896800;29;20056;-75
2023/06/24 11:15:14;;;;;;;17.13;11.65;;;28.80;99.90;;;;;;4868838;29;20053;-73
2023/06/24 11:17:42;;;;;;;16.02;10.85;;;28.80;99.90;;;;;;4862008;29;20048;-74
2023/06/24 11:20:16;;;;;;;17.50;10.15;;;28.50;99.90;;;;;;4878659;29;20064;-73
2023/06/24 11:22:44;;;;;;;18.42;11.32;;;28.50;99.90;;;;;;4881486;29;20075;-74
2023/06/24 11:25:20;;;;;;;15.77;11.05;;;28.60;99.90;;;;;;4904198;29;20040;-74
2023/06/24 11:27:49;;;;;;;19.48;10.77;;;28.70;99.90;;;;;;4912893;29;20048;-73
2023/06/24 11:30:17;;;;;;;16.42;10.52;;;28.70;99.90;;;;;;4870639;29;20044;-73
2023/06/24 11:32:45;;;;;;;17.52;11.23;;;28.50;99.90;;;;;;4894196;29;20116;-74
2023/06/24 11:35:16;;;;;;;17.65;11.48;;;28.60;99.90;;;;;;4903093;29;20077;-74
2023/06/24 11:37:47;;;;;;;15.10;10.07;;;28.60;99.90;;;;;;4904934;29;20127;-73
2023/06/24 11:40:19;;;;;;;15.88;10.70;;;28.60;99.90;;;;;;4868829;29;20100;-74
2023/06/24 11:42:48;;;;;;;17.20;10.75;;;28.60;99.90;;;;;;4899930;29;20066;-74
2023/06/24 11:45:20;;;;;;;13.82;10.38;;;28.60;99.90;;;;;;4906423;29;20067;-74
2023/06/24 11:47:52;;;;;;;26.20;14.18;;;28.40;99.90;;;;;;4891049;29;20472;-76
2023/06/24 11:50:27;;;;;;;33.08;18.77;;;28.30;99.90;;;;;;4878493;29;20101;-76
2023/06/24 11:52:54;;;;;;;17.85;11.10;;;28.40;99.90;;;;;;4872035;29;20449;-76
2023/06/24 11:55:31;;;;;;;17.05;11.35;;;28.30;99.90;;;;;;4875311;29;20439;-76
2023/06/24 11:59:26;;;;;;;24.90;16.30;;;28.40;99.90;;;;;;4755521;30;20043;-77
2023/06/24 12:02:03;;;;;;;16.35;11.65;;;28.50;99.90;;;;;;4754346;29;20048;-76
2023/06/24 12:05:01;;;;;;;;;;;;;;;;;;;;;
2023/06/24 12:10:34;;;;;;;15.32;10.93;;;28.50;99.90;;;;;;4905462;29;20444;-78
2023/06/24 12:13:05;;;;;;;17.70;11.13;;;28.60;99.90;;;;;;4910067;29;20504;-77
2023/06/24 12:20:03;;;;;;;16.92;11.18;;;28.40;99.90;;;;;;4835058;29;20481;-78
2023/06/24 12:29:21;;;;;;;18.40;12.82;;;28.40;99.90;;;;;;4952764;24;20042;-77
2023/06/24 12:31:51;;;;;;;19.83;13.05;;;28.30;99.90;;;;;;4924533;29;20050;-75
2023/06/24 12:34:20;;;;;;;15.13;10.98;;;28.30;99.90;;;;;;4920597;29;20043;-75
2023/06/24 12:37:35;;;;;;;21.52;12.73;;;28.20;99.90;;;;;;4945019;28;20047;-81
2023/06/24 12:40:11;;;;;;;16.80;10.35;;;28.30;99.90;;;;;;4941302;29;20063;-77
2023/06/24 12:43:14;;;;;;;16.40;11.10;;;28.20;99.90;;;;;;4923962;28;20075;-82
2023/06/24 12:45:48;;;;;;;19.17;10.77;;;28.30;99.90;;;;;;4953210;28;20044;-81
2023/06/24 12:49:24;;;;;;;15.90;9.80;;;28.20;99.90;;;;;;5240852;23;20028;-83
2023/06/24 12:52:36;;;;;;;26.42;16.80;;;28.30;99.90;;;;;;4918196;29;20072;-79
2023/06/24 12:55:17;;;;;;;15.93;10.57;;;28.20;99.90;;;;;;4909541;29;20075;-83
2023/06/24 12:57:46;;;;;;;17.70;10.18;;;28.40;99.90;;;;;;4929945;29;20994;-79
2023/06/24 13:00:17;;;;;;;;;;;28.40;99.90;;;;;;4946423;29;20099;-82
2023/06/24 13:03:22;;;;;;;19.58;11.50;;;28.50;99.90;;;;;;4928909;29;19931;-81
2023/06/24 13:06:35;;;;;;;19.58;10.73;;;28.50;99.90;;;;;;4878856;29;20057;-79
2023/06/24 13:09:03;;;;;;;15.90;10.90;;;28.50;99.90;;;;;;4888423;29;20034;-81
2023/06/24 13:11:32;;;;;;;14.50;10.77;;;28.50;99.90;;;;;;4892306;29;20057;-77
2023/06/24 13:14:03;;;;;;;21.08;13.80;;;28.80;99.90;;;;;;4885930;29;20041;-78
2023/06/24 13:17:19;;;;;;;20.83;13.20;;;28.80;99.90;;;;;;4810082;29;20129;-77
2023/06/24 13:19:48;;;;;;;13.30;10.85;;;28.70;99.90;;;;;;4882839;29;20052;-77
2023/06/24 13:22:21;;;;;;;13.55;10.45;;;28.80;99.90;;;;;;4901795;29;20522;-78
2023/06/24 13:25:42;;;;;;;17.63;11.20;;;28.80;99.90;;;;;;4845728;29;20191;-79
2023/06/24 13:28:12;;;;;;;18.63;10.45;;;28.80;99.90;;;;;;4909311;29;20020;-80
2023/06/24 13:30:46;;;;;;;19.88;10.90;;;28.70;99.90;;;;;;4910662;29;20064;-80
2023/06/24 13:33:13;;;;;;;16.80;10.35;;;28.70;99.90;;;;;;4903739;29;20461;-77
2023/06/24 13:35:40;;;;;;;15.60;11.80;;;28.60;99.90;;;;;;4904642;29;20075;-77
2023/06/24 13:38:13;;;;;;;18.33;11.57;;;28.60;99.90;;;;;;4886473;29;20037;-78
2023/06/24 13:40:41;;;;;;;22.13;15.43;;;28.60;99.90;;;;;;4904862;29;20454;-77
2023/06/24 13:43:21;;;;;;;166.75;97.65;;;28.50;99.90;;;;;;4918401;29;20059;-78
2023/06/24 13:52:13;;;;;;;18.92;11.82;;;28.50;99.90;;;;;;4899604;29;20083;-77
2023/06/24 13:54:41;;;;;;;16.95;11.77;;;28.50;99.90;;;;;;4900752;29;20060;-78
2023/06/24 13:57:09;;;;;;;20.67;12.07;;;28.50;99.90;;;;;;4899754;29;20038;-78
2023/06/24 14:07:42;;;;;;;15.90;11.63;;;28.30;99.90;;;;;;6038176;23;20027;-77
2023/06/24 14:10:11;;;;;;;14.27;10.73;;;28.20;99.90;;;;;;4922728;29;20091;-79
2023/06/24 14:12:44;;;;;;;16.70;10.65;;;28.30;99.90;;;;;;4925324;29;20055;-77
2023/06/24 14:15:11;;;;;;;15.82;11.00;;;28.30;99.90;;;;;;4939126;28;20047;-79
2023/06/24 14:24:11;;;;;;;18.17;11.35;;;28.30;99.90;;;;;;5661805;23;20150;-78
2023/06/24 14:26:49;;;;;;;20.15;11.20;;;28.20;99.90;;;;;;4959315;28;20050;-75
2023/06/24 14:38:43;;;;;;;;;;;;;;;;;;;;;
2023/06/24 14:42:47;;;;;;;19.13;13.23;;;28.50;99.90;;;;;;4951036;28;20094;-77
2023/06/24 14:56:58;;;;;;;20.05;12.27;;;28.80;99.90;;;;;;4936128;23;20044;-79
2023/06/24 14:59:35;;;;;;;542.30;425.48;;;28.70;99.90;;;;;;4905978;29;20040;-80
2023/06/24 15:03:00;;;;;;;90.32;73.53;;;28.80;99.90;;;;;;4875973;29;20099;-79
2023/06/24 15:10:18;;;;;;;18.98;12.95;;;29.00;99.90;;;;;;4875998;29;20064;-81
2023/06/24 15:12:48;;;;;;;16.85;12.63;;;28.70;99.90;;;;;;5286425;23;20059;-78
2023/06/24 15:15:17;;;;;;;21.75;11.82;;;28.80;99.90;;;;;;4934568;29;20036;-77
2023/06/24 15:21:23;;;;;;;19.27;11.55;;;28.70;99.90;;;;;;5048273;23;20039;-77
2023/06/24 15:24:39;;;;;;;21.00;13.00;;;28.80;99.90;;;;;;4901582;29;20046;-77
2023/06/24 15:27:07;;;;;;;21.75;12.75;;;28.80;99.90;;;;;;4950151;23;20452;-77
2023/06/24 15:35:57;;;;;;;32.47;24.73;;;28.60;99.90;;;;;;5439741;23;20054;-76
2023/06/24 15:39:07;;;;;;;66.72;43.70;;;28.50;99.90;;;;;;4911364;29;20057;-75
2023/06/24 15:42:47;;;;;;;;;;;;;;;;;;;;;
2023/06/24 15:48:40;;;;;;;18.30;13.18;;;28.40;99.90;;;;;;5127307;23;20541;-78
2023/06/24 15:51:08;;;;;;;18.00;13.80;;;28.30;99.90;;;;;;4909513;29;20121;-76
2023/06/24 15:53:37;;;;;;;20.17;14.68;;;28.30;99.90;;;;;;4890403;29;20044;-74
2023/06/24 15:56:04;;;;;;;22.10;13.60;;;28.20;99.90;;;;;;4877561;29;20135;-74
2023/06/24 15:58:35;;;;;;;18.55;12.10;;;28.30;99.90;;;;;;4889261;29;20040;-78
2023/06/24 16:01:05;;;;;;;20.85;13.80;;;28.30;99.90;;;;;;4888398;29;20059;-76
2023/06/24 16:03:34;;;;;;;25.23;18.63;;;28.30;99.90;;;;;;4882219;29;20043;-80
2023/06/24 16:06:04;;;;;;;24.13;16.45;;;28.20;99.90;;;;;;4890116;29;20056;-75
2023/06/24 16:13:18;;;;;;;16.70;11.50;;;28.20;99.90;;;;;;4826723;29;20038;-76
2023/06/24 16:15:47;;;;;;;16.63;11.77;;;28.10;99.90;;;;;;4885285;29;20509;-78
2023/06/24 16:21:44;;;;;;;18.67;11.55;;;27.90;99.90;;;;;;4914718;29;20133;-76
2023/06/24 16:24:11;;;;;;;16.02;10.73;;;27.90;99.90;;;;;;4897643;29;20104;-79
2023/06/24 16:26:39;;;;;;;16.92;10.80;;;27.70;99.90;;;;;;4886795;29;20071;-82
2023/06/24 16:38:37;;;;;;;32.33;18.45;;;27.10;99.90;;;;;;3181015;23;20485;-73
2023/06/24 16:41:04;;;;;;;12.68;6.60;;;26.80;98.60;;;;;;4931566;29;20070;-77
2023/06/24 16:44:19;;;;;;;28.08;14.02;;;26.40;97.40;;;;;;4928570;23;20048;-76
2023/06/24 16:49:42;;;;;;;13.50;4.88;;;26.10;97.00;;;;;;4903354;27;20075;-78
2023/06/24 16:52:15;;;;;;;12.25;4.28;;;26.00;97.20;;;;;;4939541;23;20044;-73
2023/06/24 16:55:17;;;;;;;20.92;7.28;;;25.90;97.00;;;;;;4897678;29;20052;-77
2023/06/24 16:57:45;;;;;;;12.13;3.72;;;25.70;97.60;;;;;;4900137;29;20032;-74
2023/06/24 17:00:13;;;;;;;27.42;7.82;;;25.50;97.40;;;;;;4903069;29;20071;-76
2023/06/24 17:02:44;;;;;;;13.75;5.13;;;25.60;97.60;;;;;;4903095;29;20063;-75
2023/06/24 17:05:19;;;;;;;11.35;4.80;;;25.50;97.60;;;;;;4920133;29;20044;-77
2023/06/24 17:07:46;;;;;;;39.13;10.95;;;25.60;97.90;;;;;;4907709;29;20363;-74